Ethridge, Montana
Current Conditions -  °F | °C
As of 3:56 AM on Thursday 23 Oct 2014 (Local Time) from KCTB Reporting Station
Scattered Clouds Scattered Clouds  
Wind Chill: 52°   Ceiling: Unl
Heat Index: 52°   Visibility: 10mi
Dew Point: 34°   Wind: 9mph
Humidity: 50%   Direction: 240°WSW
Pressure: 29.76"   Gusts: NA
Location:  48.56°N, 112.12°W
Report Text: KCTB 230956Z AUTO 24008KT 200V270 10SM SCT075 11/01 A2976 RMK AO2 SLP063 T01110011
Loading
Personal Weather Stations






























Interactive Weather Map
Tropical Storm Tracking
New forecast layout! Learn more

10-Day Weather Forecast

Advertisements
Track Severe Weather on mobile